Time;durP1;ratioP1;P1;durP2;ratioP2;P2;SDS_P1;SDS_P2;PMS_P1;PMS_P2;Temp;Humidity;BMP_temperature;BMP_pressure;BME280_temperature;BME280_humidity;BME280_pressure;Samples;Min_cycle;Max_cycle;Signal;HPM_P1;HPM_P2
2022/11/14 00:01:56;;;;;;;20.80;10.65;;;;;;;;;;5009220;28;20044;-62
2022/11/14 00:04:22;;;;;;;23.13;9.80;;;;;;;;;;5008805;28;20044;-61
2022/11/14 00:06:47;;;;;;;21.75;9.45;;;;;;;;;;5020078;28;20032;-62
2022/11/14 00:09:12;;;;;;;23.00;9.70;;;;;;;;;;5040318;28;20046;-62
2022/11/14 00:11:38;;;;;;;23.83;10.30;;;;;;;;;;5021262;28;20037;-62
2022/11/14 00:14:03;;;;;;;29.65;9.23;;;;;;;;;;5024331;28;20125;-62
2022/11/14 00:16:28;;;;;;;24.30;9.98;;;;;;;;;;5028482;28;20136;-62
2022/11/14 00:18:54;;;;;;;21.77;9.68;;;;;;;;;;5028537;28;20025;-62
2022/11/14 00:21:19;;;;;;;21.67;9.77;;;;;;;;;;5027552;28;20037;-62
2022/11/14 00:23:44;;;;;;;22.98;10.15;;;;;;;;;;5014022;28;20046;-62
2022/11/14 00:26:10;;;;;;;19.88;9.15;;;;;;;;;;5004508;28;20060;-61
2022/11/14 00:28:35;;;;;;;22.77;9.77;;;;;;;;;;5004774;28;20605;-61
2022/11/14 00:31:00;;;;;;;23.25;8.95;;;;;;;;;;5005304;28;20104;-61
2022/11/14 00:33:25;;;;;;;25.65;9.32;;;;;;;;;;5005428;28;20057;-62
2022/11/14 00:35:55;;;;;;;22.05;10.82;;;;;;;;;;5008703;28;20458;-62
2022/11/14 00:38:21;;;;;;;24.83;10.75;;;;;;;;;;5019675;28;20042;-62
2022/11/14 00:40:46;;;;;;;21.48;10.60;;;;;;;;;;5025647;28;20125;-61
2022/11/14 00:43:12;;;;;;;18.63;9.05;;;;;;;;;;5027022;28;20112;-62
2022/11/14 00:45:37;;;;;;;25.60;10.85;;;;;;;;;;5018315;28;20053;-62
2022/11/14 00:48:03;;;;;;;23.42;9.93;;;;;;;;;;5039445;28;20034;-62
2022/11/14 00:50:28;;;;;;;20.40;10.40;;;;;;;;;;5008033;28;20107;-62
2022/11/14 00:52:53;;;;;;;22.92;11.27;;;;;;;;;;5008277;28;20046;-62
2022/11/14 00:55:19;;;;;;;20.33;9.93;;;;;;;;;;5008306;28;20079;-61
2022/11/14 00:57:44;;;;;;;22.15;10.35;;;;;;;;;;5009657;28;20036;-62
2022/11/14 01:00:12;;;;;;;26.50;10.48;;;;;;;;;;5012629;28;20046;-61
2022/11/14 01:02:37;;;;;;;22.83;9.77;;;;;;;;;;5007978;28;20049;-61
2022/11/14 01:05:03;;;;;;;24.42;10.68;;;;;;;;;;5007766;28;20030;-62
2022/11/14 01:07:28;;;;;;;24.83;10.85;;;;;;;;;;5008010;28;20041;-62
2022/11/14 01:09:53;;;;;;;23.90;10.50;;;;;;;;;;5008048;28;20053;-62
2022/11/14 01:12:18;;;;;;;23.70;10.88;;;;;;;;;;5025306;28;20392;-62
2022/11/14 01:14:44;;;;;;;19.05;9.00;;;;;;;;;;5025495;28;20113;-62
2022/11/14 01:17:10;;;;;;;17.75;8.88;;;;;;;;;;5012664;28;20061;-62
2022/11/14 01:19:35;;;;;;;18.83;9.15;;;;;;;;;;5005927;28;20046;-62
2022/11/14 01:22:01;;;;;;;15.50;8.77;;;;;;;;;;5007442;28;20407;-62
2022/11/14 01:24:26;;;;;;;16.95;7.78;;;;;;;;;;5008365;28;20022;-63
2022/11/14 01:26:55;;;;;;;17.70;8.98;;;;;;;;;;5007259;28;20178;-62
2022/11/14 01:29:20;;;;;;;18.17;8.38;;;;;;;;;;5023307;28;20112;-62
2022/11/14 01:31:45;;;;;;;18.98;9.50;;;;;;;;;;5027317;28;20451;-63
2022/11/14 01:34:11;;;;;;;14.98;7.78;;;;;;;;;;5026277;28;20041;-62
2022/11/14 01:36:36;;;;;;;15.07;8.77;;;;;;;;;;5027676;28;20455;-62
2022/11/14 01:39:01;;;;;;;21.38;8.82;;;;;;;;;;5026933;28;20045;-62
2022/11/14 01:41:27;;;;;;;15.85;8.25;;;;;;;;;;5026682;28;20037;-62
2022/11/14 01:43:52;;;;;;;12.45;7.20;;;;;;;;;;5027232;28;20034;-62
2022/11/14 01:46:33;;;;;;;15.65;7.53;;;;;;;;;;5026250;28;20032;-63
2022/11/14 01:49:01;;;;;;;13.35;7.00;;;;;;;;;;5027039;28;20029;-62
2022/11/14 01:52:01;;;;;;;14.00;7.28;;;;;;;;;;5047064;28;20037;-62
2022/11/14 01:54:36;;;;;;;14.40;7.45;;;;;;;;;;5042383;28;20040;-62
2022/11/14 01:57:05;;;;;;;19.67;7.80;;;;;;;;;;5027105;28;20128;-62
2022/11/14 01:59:38;;;;;;;19.55;7.43;;;;;;;;;;5026890;28;20037;-63
2022/11/14 02:02:20;;;;;;;16.20;7.82;;;;;;;;;;5025416;28;20056;-62
2022/11/14 02:05:07;;;;;;;14.90;8.02;;;;;;;;;;5025045;28;20029;-63
2022/11/14 02:07:36;;;;;;;31.42;7.97;;;;;;;;;;5026042;28;20025;-63
2022/11/14 02:10:06;;;;;;;17.92;8.18;;;;;;;;;;5024929;28;20466;-62
2022/11/14 02:12:32;;;;;;;17.08;8.00;;;;;;;;;;5026745;28;20108;-62
2022/11/14 02:14:58;;;;;;;18.13;7.97;;;;;;;;;;5026939;28;20121;-62
2022/11/14 02:17:25;;;;;;;15.30;7.88;;;;;;;;;;5010874;28;20045;-62
2022/11/14 02:20:12;;;;;;;17.83;8.77;;;;;;;;;;5006636;28;20117;-62
2022/11/14 02:22:40;;;;;;;15.18;7.45;;;;;;;;;;5006203;28;20109;-62
2022/11/14 02:25:07;;;;;;;16.67;7.90;;;;;;;;;;5006373;28;20129;-63
2022/11/14 02:27:33;;;;;;;14.20;7.18;;;;;;;;;;5006795;28;20026;-62
2022/11/14 02:30:05;;;;;;;16.20;7.50;;;;;;;;;;5025056;28;20115;-62
2022/11/14 02:32:30;;;;;;;15.02;7.25;;;;;;;;;;5025812;28;20443;-62
2022/11/14 02:34:56;;;;;;;13.05;7.18;;;;;;;;;;5025549;28;20036;-62
2022/11/14 02:37:21;;;;;;;16.88;7.38;;;;;;;;;;5019890;28;20483;-62
2022/11/14 02:39:47;;;;;;;13.98;7.50;;;;;;;;;;5012329;28;20022;-62
2022/11/14 02:42:12;;;;;;;13.38;7.88;;;;;;;;;;5005981;28;20914;-62
2022/11/14 02:44:37;;;;;;;15.48;7.35;;;;;;;;;;5006910;28;20038;-62
2022/11/14 02:47:03;;;;;;;15.13;7.68;;;;;;;;;;5005733;28;20608;-63
2022/11/14 02:49:28;;;;;;;14.23;7.82;;;;;;;;;;5006168;28;20500;-62
2022/11/14 02:51:53;;;;;;;17.90;7.80;;;;;;;;;;5006545;28;20029;-62
2022/11/14 02:54:18;;;;;;;14.23;6.93;;;;;;;;;;5005567;28;20689;-62
2022/11/14 02:56:44;;;;;;;13.80;7.50;;;;;;;;;;5006574;28;20036;-62
2022/11/14 02:59:09;;;;;;;12.63;6.38;;;;;;;;;;5011834;28;20037;-63
2022/11/14 03:01:34;;;;;;;16.02;8.00;;;;;;;;;;5023601;28;20036;-62
2022/11/14 03:04:00;;;;;;;13.77;7.28;;;;;;;;;;5009397;28;20732;-63
2022/11/14 03:06:25;;;;;;;15.07;7.32;;;;;;;;;;5005931;28;20045;-62
2022/11/14 03:08:51;;;;;;;11.95;7.07;;;;;;;;;;5005515;28;20053;-62
2022/11/14 03:11:16;;;;;;;13.02;7.40;;;;;;;;;;5013954;28;20041;-62
2022/11/14 03:13:41;;;;;;;14.98;7.03;;;;;;;;;;5025323;28;20038;-62
2022/11/14 03:16:08;;;;;;;14.45;6.63;;;;;;;;;;5021451;28;20929;-62
2022/11/14 03:18:34;;;;;;;13.73;7.22;;;;;;;;;;5022534;28;20029;-62
2022/11/14 03:21:11;;;;;;;13.90;6.57;;;;;;;;;;5024826;28;20046;-62
2022/11/14 03:23:37;;;;;;;12.73;6.55;;;;;;;;;;5025591;28;20029;-62
2022/11/14 03:26:05;;;;;;;13.95;6.47;;;;;;;;;;5012971;28;20086;-62
2022/11/14 03:28:31;;;;;;;17.73;7.20;;;;;;;;;;5035791;28;20030;-62
2022/11/14 03:30:56;;;;;;;15.10;7.05;;;;;;;;;;5025995;28;20017;-62
2022/11/14 03:33:22;;;;;;;13.95;6.70;;;;;;;;;;5021507;28;20026;-62
2022/11/14 03:35:51;;;;;;;11.00;6.22;;;;;;;;;;5018086;28;20492;-62
2022/11/14 03:38:17;;;;;;;13.30;7.13;;;;;;;;;;5004161;28;20462;-62
2022/11/14 03:40:42;;;;;;;14.18;6.45;;;;;;;;;;5023366;28;20740;-63
2022/11/14 03:43:08;;;;;;;16.52;6.68;;;;;;;;;;5017016;28;20025;-62
2022/11/14 03:45:35;;;;;;;15.23;6.88;;;;;;;;;;5017784;28;20013;-62
2022/11/14 03:48:01;;;;;;;15.48;7.30;;;;;;;;;;5025149;28;20084;-62
2022/11/14 03:50:26;;;;;;;13.85;6.88;;;;;;;;;;5023295;28;20419;-62
2022/11/14 03:52:51;;;;;;;11.88;6.22;;;;;;;;;;5006690;28;20045;-62
2022/11/14 03:55:17;;;;;;;13.35;6.65;;;;;;;;;;5005243;28;20053;-62
2022/11/14 03:57:42;;;;;;;17.13;8.00;;;;;;;;;;5006038;28;20454;-62
2022/11/14 04:00:08;;;;;;;14.73;7.20;;;;;;;;;;5021715;28;20098;-62
2022/11/14 04:02:33;;;;;;;13.23;7.18;;;;;;;;;;5043915;28;20137;-63
2022/11/14 04:04:59;;;;;;;15.15;6.45;;;;;;;;;;5045494;28;20198;-62
2022/11/14 04:07:24;;;;;;;14.35;6.80;;;;;;;;;;5044726;28;20033;-62
2022/11/14 04:09:50;;;;;;;14.60;7.00;;;;;;;;;;5044194;28;20070;-62
2022/11/14 04:12:16;;;;;;;11.13;7.45;;;;;;;;;;5027570;28;20522;-62
2022/11/14 04:14:42;;;;;;;14.60;6.70;;;;;;;;;;5011762;28;20095;-62
2022/11/14 04:17:07;;;;;;;11.65;6.70;;;;;;;;;;5010811;28;20034;-62
2022/11/14 04:19:32;;;;;;;10.73;5.80;;;;;;;;;;5005023;28;20053;-62
2022/11/14 04:21:57;;;;;;;14.73;6.97;;;;;;;;;;5005883;28;20038;-62
2022/11/14 04:24:23;;;;;;;12.57;6.15;;;;;;;;;;5005205;28;20038;-62
2022/11/14 04:26:48;;;;;;;13.30;7.05;;;;;;;;;;5021114;28;20132;-62
2022/11/14 04:29:13;;;;;;;12.00;6.30;;;;;;;;;;5024378;28;20094;-62
2022/11/14 04:31:39;;;;;;;11.13;6.43;;;;;;;;;;5025063;28;20036;-62
2022/11/14 04:34:04;;;;;;;11.10;6.10;;;;;;;;;;5025523;28;20120;-62
2022/11/14 04:36:29;;;;;;;10.35;5.15;;;;;;;;;;5028633;28;20414;-62
2022/11/14 04:38:55;;;;;;;14.88;6.38;;;;;;;;;;5028666;28;20049;-62
2022/11/14 04:41:20;;;;;;;14.93;6.72;;;;;;;;;;5027931;28;20052;-62
2022/11/14 04:43:45;;;;;;;12.80;6.28;;;;;;;;;;5022358;28;20080;-62
2022/11/14 04:46:11;;;;;;;14.00;7.00;;;;;;;;;;5024676;28;20029;-62
2022/11/14 04:48:36;;;;;;;10.65;5.90;;;;;;;;;;5028703;28;20032;-62
2022/11/14 04:51:01;;;;;;;10.30;5.75;;;;;;;;;;5026590;28;20029;-62
2022/11/14 04:53:27;;;;;;;11.50;6.20;;;;;;;;;;5027960;28;20068;-61
2022/11/14 04:55:52;;;;;;;10.55;6.10;;;;;;;;;;5027718;28;20044;-62
2022/11/14 04:58:17;;;;;;;12.95;6.40;;;;;;;;;;5028268;28;20041;-62
2022/11/14 05:00:42;;;;;;;11.52;5.95;;;;;;;;;;5027811;28;20556;-61
2022/11/14 05:03:08;;;;;;;12.23;5.80;;;;;;;;;;5007891;28;20048;-62
2022/11/14 05:05:33;;;;;;;12.20;6.00;;;;;;;;;;5028666;28;20549;-61
2022/11/14 05:07:58;;;;;;;12.48;6.10;;;;;;;;;;5051038;28;20034;-61
2022/11/14 05:10:24;;;;;;;11.35;5.53;;;;;;;;;;5008659;28;20037;-62
2022/11/14 05:12:52;;;;;;;12.55;5.25;;;;;;;;;;5026619;28;20091;-62
2022/11/14 05:15:17;;;;;;;14.18;6.20;;;;;;;;;;5027318;28;20049;-62
2022/11/14 05:17:43;;;;;;;12.35;5.93;;;;;;;;;;5017863;28;20744;-62
2022/11/14 05:20:09;;;;;;;13.00;6.35;;;;;;;;;;5012701;28;20100;-62
2022/11/14 05:22:34;;;;;;;15.98;6.43;;;;;;;;;;5024019;28;20415;-61
2022/11/14 05:24:59;;;;;;;11.05;5.93;;;;;;;;;;5026331;28;20041;-62
2022/11/14 05:27:24;;;;;;;10.35;5.22;;;;;;;;;;5027113;28;20045;-62
2022/11/14 05:29:50;;;;;;;9.10;5.40;;;;;;;;;;5027104;28;20037;-62
2022/11/14 05:32:15;;;;;;;11.77;6.10;;;;;;;;;;5027363;28;20720;-62
2022/11/14 05:34:40;;;;;;;9.70;5.40;;;;;;;;;;5023657;28;20125;-61
2022/11/14 05:37:07;;;;;;;16.52;6.03;;;;;;;;;;5023127;28;20388;-62
2022/11/14 05:39:32;;;;;;;10.23;5.55;;;;;;;;;;5027475;28;20483;-62
2022/11/14 05:41:57;;;;;;;11.70;5.63;;;;;;;;;;5027262;28;20045;-62
2022/11/14 05:44:23;;;;;;;12.98;5.35;;;;;;;;;;5026154;28;20042;-62
2022/11/14 05:46:48;;;;;;;11.50;5.90;;;;;;;;;;5026975;28;20121;-62
2022/11/14 05:49:13;;;;;;;13.10;4.90;;;;;;;;;;5026907;28;20022;-61
2022/11/14 05:51:39;;;;;;;10.10;5.75;;;;;;;;;;5027310;28;20025;-62
2022/11/14 05:54:04;;;;;;;16.08;5.95;;;;;;;;;;5026967;28;20037;-62
2022/11/14 05:56:29;;;;;;;12.75;5.72;;;;;;;;;;5026458;28;20049;-62
2022/11/14 05:58:55;;;;;;;16.00;6.43;;;;;;;;;;5028766;28;20041;-62
2022/11/14 06:01:20;;;;;;;13.30;6.70;;;;;;;;;;5024072;28;20533;-62
2022/11/14 06:03:47;;;;;;;13.02;6.68;;;;;;;;;;5027262;28;20025;-61
2022/11/14 06:06:16;;;;;;;14.80;6.53;;;;;;;;;;5026967;28;20061;-62
2022/11/14 06:08:41;;;;;;;14.73;5.82;;;;;;;;;;5026232;28;20051;-61
2022/11/14 06:11:09;;;;;;;12.30;6.93;;;;;;;;;;5015245;28;20037;-62
2022/11/14 06:13:35;;;;;;;13.98;6.82;;;;;;;;;;5005517;28;20534;-62
2022/11/14 06:16:02;;;;;;;16.30;6.05;;;;;;;;;;5007069;28;20037;-62
2022/11/14 06:18:29;;;;;;;14.02;6.50;;;;;;;;;;5005643;28;20133;-62
2022/11/14 06:21:03;;;;;;;15.65;6.82;;;;;;;;;;5006863;28;20494;-61
2022/11/14 06:23:28;;;;;;;13.52;6.25;;;;;;;;;;5010440;28;20068;-61
2022/11/14 06:26:01;;;;;;;11.68;5.57;;;;;;;;;;5025922;28;20060;-61
2022/11/14 06:28:26;;;;;;;17.58;6.75;;;;;;;;;;5025683;28;20032;-62
2022/11/14 06:30:56;;;;;;;16.70;6.28;;;;;;;;;;5026301;28;20025;-61
2022/11/14 06:33:21;;;;;;;13.05;6.00;;;;;;;;;;5023953;28;20069;-62
2022/11/14 06:35:47;;;;;;;9.45;5.43;;;;;;;;;;5024278;28;20079;-62
2022/11/14 06:38:12;;;;;;;12.23;5.78;;;;;;;;;;5025274;28;20042;-62
2022/11/14 06:40:37;;;;;;;21.88;6.03;;;;;;;;;;5025694;28;20041;-62
2022/11/14 06:43:03;;;;;;;16.77;6.40;;;;;;;;;;5023911;28;20108;-61
2022/11/14 06:45:28;;;;;;;14.45;7.70;;;;;;;;;;5026197;28;20032;-61
2022/11/14 06:47:57;;;;;;;16.77;7.53;;;;;;;;;;5024035;28;20501;-62
2022/11/14 06:50:23;;;;;;;15.25;6.07;;;;;;;;;;5018782;28;20040;-62
2022/11/14 06:52:48;;;;;;;18.60;7.47;;;;;;;;;;5023907;28;20038;-62
2022/11/14 06:55:13;;;;;;;17.80;8.63;;;;;;;;;;5025421;28;20509;-62
2022/11/14 06:57:39;;;;;;;20.20;9.63;;;;;;;;;;5024191;28;20531;-61
2022/11/14 07:00:04;;;;;;;22.20;9.93;;;;;;;;;;5007922;28;20049;-62
2022/11/14 07:02:30;;;;;;;17.35;7.85;;;;;;;;;;5005713;28;20046;-61
2022/11/14 07:04:55;;;;;;;18.55;8.65;;;;;;;;;;5005605;28;20479;-62
2022/11/14 07:07:20;;;;;;;18.55;8.20;;;;;;;;;;5005928;28;20079;-62
2022/11/14 07:09:46;;;;;;;30.98;9.18;;;;;;;;;;5005619;28;20046;-62
2022/11/14 07:12:11;;;;;;;19.80;8.60;;;;;;;;;;5022347;28;20465;-62
2022/11/14 07:14:36;;;;;;;17.30;8.05;;;;;;;;;;5022924;28;20075;-62
2022/11/14 07:17:02;;;;;;;18.63;8.27;;;;;;;;;;5020107;28;20045;-62
2022/11/14 07:19:27;;;;;;;37.55;22.88;;;;;;;;;;5024679;28;20068;-61
2022/11/14 07:21:52;;;;;;;16.45;9.65;;;;;;;;;;5024914;28;20026;-61
2022/11/14 07:24:17;;;;;;;26.70;7.88;;;;;;;;;;5024125;28;20590;-62
2022/11/14 07:26:44;;;;;;;19.33;8.43;;;;;;;;;;5025270;28;20116;-62
2022/11/14 07:29:10;;;;;;;24.45;7.53;;;;;;;;;;5022751;28;20424;-62
2022/11/14 07:31:35;;;;;;;18.45;7.90;;;;;;;;;;5025502;28;20040;-62
2022/11/14 07:34:00;;;;;;;17.08;8.23;;;;;;;;;;5024893;28;20399;-62
2022/11/14 07:36:26;;;;;;;17.48;7.50;;;;;;;;;;5022386;28;20391;-62
2022/11/14 07:38:51;;;;;;;19.95;8.85;;;;;;;;;;5024861;28;20959;-62
2022/11/14 07:41:18;;;;;;;21.63;8.40;;;;;;;;;;5024918;28;20127;-62
2022/11/14 07:43:43;;;;;;;15.55;7.03;;;;;;;;;;5025608;28;20439;-62
2022/11/14 07:46:16;;;;;;;18.63;7.40;;;;;;;;;;5021674;28;20025;-62
2022/11/14 07:48:43;;;;;;;14.38;6.43;;;;;;;;;;5024621;28;20032;-62
2022/11/14 07:51:14;;;;;;;14.32;7.03;;;;;;;;;;5022579;28;20029;-62
2022/11/14 07:53:39;;;;;;;20.25;7.07;;;;;;;;;;5024350;28;20038;-63
2022/11/14 07:56:09;;;;;;;8.00;4.95;;;;;;;;;;5019369;28;20038;-62
2022/11/14 07:58:36;;;;;;;20.27;8.00;;;;;;;;;;5017234;28;20116;-62
2022/11/14 08:01:03;;;;;;;12.02;5.00;;;;;;;;;;5022498;28;20056;-62
2022/11/14 08:03:29;;;;;;;20.25;8.13;;;;;;;;;;5024286;28;20372;-62
2022/11/14 08:06:03;;;;;;;38.03;7.32;;;;;;;;;;5018183;28;20048;-62
2022/11/14 08:08:29;;;;;;;16.88;6.68;;;;;;;;;;5009189;28;20053;-62
2022/11/14 08:10:56;;;;;;;27.45;7.07;;;;;;;;;;5013223;28;20030;-62
2022/11/14 08:13:22;;;;;;;27.95;6.15;;;;;;;;;;5012465;28;20514;-62
2022/11/14 08:15:47;;;;;;;36.08;7.25;;;;;;;;;;5022679;28;20026;-62
2022/11/14 08:18:12;;;;;;;51.65;7.53;;;;;;;;;;5023922;28;20048;-62
2022/11/14 08:20:38;;;;;;;61.30;8.90;;;;;;;;;;5013938;28;20168;-62
2022/11/14 08:23:05;;;;;;;70.20;7.20;;;;;;;;;;5005891;28;20041;-62
2022/11/14 08:25:31;;;;;;;58.45;7.53;;;;;;;;;;5032979;28;20553;-62
2022/11/14 08:27:57;;;;;;;37.60;5.47;;;;;;;;;;5043359;28;20035;-62
2022/11/14 08:30:22;;;;;;;68.32;6.65;;;;;;;;;;5033722;28;20039;-62
2022/11/14 08:32:47;;;;;;;31.67;4.93;;;;;;;;;;5043777;28;20057;-62
2022/11/14 08:35:13;;;;;;;26.23;5.40;;;;;;;;;;5038316;28;20116;-62
2022/11/14 08:37:38;;;;;;;56.13;7.63;;;;;;;;;;5047850;28;20453;-62
2022/11/14 08:40:05;;;;;;;153.70;9.63;;;;;;;;;;5047437;28;20036;-62
2022/11/14 08:42:30;;;;;;;88.30;8.05;;;;;;;;;;5028635;28;20026;-62
2022/11/14 08:44:56;;;;;;;28.35;6.50;;;;;;;;;;5027931;28;20776;-62
2022/11/14 08:47:21;;;;;;;26.83;5.65;;;;;;;;;;5060269;28;20068;-62
2022/11/14 08:49:46;;;;;;;24.38;5.63;;;;;;;;;;5027818;28;20124;-63
2022/11/14 08:52:12;;;;;;;71.03;8.07;;;;;;;;;;5037804;28;20035;-62
2022/11/14 08:54:37;;;;;;;15.00;6.75;;;;;;;;;;5038296;28;20103;-62
2022/11/14 08:57:03;;;;;;;25.77;5.88;;;;;;;;;;5046151;28;20134;-62
2022/11/14 08:59:29;;;;;;;18.45;3.67;;;;;;;;;;5031983;28;20065;-62
2022/11/14 09:01:55;;;;;;;28.83;5.20;;;;;;;;;;5025775;28;20029;-62
2022/11/14 09:04:20;;;;;;;30.13;7.68;;;;;;;;;;5042370;28;20048;-62
2022/11/14 09:06:46;;;;;;;66.68;7.45;;;;;;;;;;5032535;28;20023;-62
2022/11/14 09:09:11;;;;;;;32.42;5.57;;;;;;;;;;5037793;28;20044;-62
2022/11/14 09:11:37;;;;;;;42.17;7.43;;;;;;;;;;5031479;28;20040;-62
2022/11/14 09:14:02;;;;;;;39.13;5.45;;;;;;;;;;5026788;28;20099;-62
2022/11/14 09:16:27;;;;;;;23.08;7.00;;;;;;;;;;5027292;28;20561;-62
2022/11/14 09:18:53;;;;;;;16.73;6.00;;;;;;;;;;5027521;28;20028;-62
2022/11/14 09:21:18;;;;;;;30.75;4.20;;;;;;;;;;5037030;28;20033;-62
2022/11/14 09:23:46;;;;;;;29.77;6.75;;;;;;;;;;5046869;28;20021;-62
2022/11/14 09:26:12;;;;;;;22.63;5.90;;;;;;;;;;5047226;28;20074;-62
2022/11/14 09:28:37;;;;;;;24.02;4.00;;;;;;;;;;5046426;28;20033;-62
2022/11/14 09:31:05;;;;;;;27.25;4.40;;;;;;;;;;5047122;28;20104;-63
2022/11/14 09:33:31;;;;;;;54.40;7.68;;;;;;;;;;5047317;28;20491;-62
2022/11/14 09:36:02;;;;;;;11.02;6.20;;;;;;;;;;5047098;28;20048;-62
2022/11/14 09:38:28;;;;;;;6.03;3.40;;;;;;;;;;5045996;28;20025;-62
2022/11/14 09:41:16;;;;;;;33.25;7.22;;;;;;;;;;5037768;28;20048;-63
2022/11/14 09:44:19;;;;;;;30.30;7.20;;;;;;;;;;5040935;28;20036;-62
2022/11/14 09:46:59;;;;;;;30.63;7.70;;;;;;;;;;5046080;28;20055;-62
2022/11/14 09:49:27;;;;;;;23.05;7.80;;;;;;;;;;5046230;28;20033;-63
2022/11/14 09:52:00;;;;;;;27.90;7.95;;;;;;;;;;5044865;28;20025;-62
2022/11/14 09:54:31;;;;;;;16.65;7.03;;;;;;;;;;5045220;28;20044;-62
2022/11/14 09:56:56;;;;;;;42.47;7.20;;;;;;;;;;5045376;28;20044;-62
2022/11/14 09:59:21;;;;;;;34.95;7.13;;;;;;;;;;5046230;28;20041;-62
2022/11/14 10:02:04;;;;;;;11.20;5.38;;;;;;;;;;5046061;28;20025;-62
2022/11/14 10:04:54;;;;;;;28.10;6.67;;;;;;;;;;5031810;28;20033;-63
2022/11/14 10:07:36;;;;;;;13.20;3.92;;;;;;;;;;5040408;28;20017;-62
2022/11/14 10:10:07;;;;;;;5.72;2.42;;;;;;;;;;5052591;28;20466;-62
2022/11/14 10:12:55;;;;;;;21.75;7.90;;;;;;;;;;5050002;28;20025;-62
2022/11/14 10:15:39;;;;;;;19.95;5.57;;;;;;;;;;5028618;28;20037;-62
2022/11/14 10:18:27;;;;;;;12.75;5.70;;;;;;;;;;5044131;28;20033;-63
2022/11/14 10:20:56;;;;;;;9.65;4.00;;;;;;;;;;5047460;28;20037;-62
2022/11/14 10:23:37;;;;;;;12.95;5.10;;;;;;;;;;5050267;28;20116;-63
2022/11/14 10:26:15;;;;;;;10.18;3.83;;;;;;;;;;5065727;28;20428;-62
2022/11/14 10:28:52;;;;;;;27.85;5.38;;;;;;;;;;5053212;28;20033;-62
2022/11/14 10:31:55;;;;;;;12.63;6.38;;;;;;;;;;5044975;28;20126;-62
2022/11/14 10:34:34;;;;;;;15.40;6.60;;;;;;;;;;5025406;28;20048;-62
2022/11/14 10:37:11;;;;;;;22.30;7.90;;;;;;;;;;5026365;28;20026;-62
2022/11/14 10:39:53;;;;;;;15.93;7.57;;;;;;;;;;5037246;28;20052;-62
2022/11/14 10:42:37;;;;;;;19.25;8.45;;;;;;;;;;5043771;28;20140;-62
2022/11/14 10:45:02;;;;;;;19.05;7.65;;;;;;;;;;5045012;28;20037;-62
2022/11/14 10:47:35;;;;;;;17.70;7.38;;;;;;;;;;5041405;28;20047;-62
2022/11/14 10:50:18;;;;;;;19.50;8.35;;;;;;;;;;5044821;28;20032;-63
2022/11/14 10:52:44;;;;;;;18.73;7.73;;;;;;;;;;5045756;28;20697;-62
2022/11/14 10:55:15;;;;;;;20.42;8.73;;;;;;;;;;5040985;28;20298;-62
2022/11/14 10:57:43;;;;;;;15.40;7.20;;;;;;;;;;5044684;28;20031;-62
2022/11/14 11:00:15;;;;;;;14.40;7.07;;;;;;;;;;5044954;28;20067;-62
2022/11/14 11:02:52;;;;;;;15.52;6.82;;;;;;;;;;5046952;28;20029;-63
2022/11/14 11:05:20;;;;;;;18.10;7.43;;;;;;;;;;5044843;28;20025;-62
2022/11/14 11:13:47;;;;;;;10.75;5.13;;;;;;;;;;5030927;28;20043;-62
2022/11/14 11:16:12;;;;;;;14.07;6.95;;;;;;;;;;5035052;28;20052;-62
2022/11/14 11:18:37;;;;;;;13.93;6.05;;;;;;;;;;5037277;28;20075;-62
2022/11/14 11:21:06;;;;;;;8.63;4.70;;;;;;;;;;5041563;28;20495;-62
2022/11/14 11:23:32;;;;;;;20.20;8.57;;;;;;;;;;5024685;28;20805;-63
2022/11/14 11:26:04;;;;;;;17.50;6.55;;;;;;;;;;5041317;28;20037;-62
2022/11/14 11:28:33;;;;;;;18.42;7.07;;;;;;;;;;5043432;28;20029;-62
2022/11/14 11:31:07;;;;;;;18.20;8.57;;;;;;;;;;5045519;28;20384;-62
2022/11/14 11:33:37;;;;;;;19.23;8.27;;;;;;;;;;5043888;28;20072;-62
2022/11/14 11:36:17;;;;;;;12.13;6.43;;;;;;;;;;5049970;28;20139;-62
2022/11/14 11:38:44;;;;;;;14.85;6.10;;;;;;;;;;5037182;28;20033;-62
2022/11/14 11:41:20;;;;;;;19.27;8.40;;;;;;;;;;5033713;28;20040;-62
2022/11/14 11:44:01;;;;;;;22.95;9.32;;;;;;;;;;5048634;28;20082;-62
2022/11/14 11:46:52;;;;;;;26.30;11.15;;;;;;;;;;5036988;28;20045;-62
2022/11/14 11:49:36;;;;;;;24.85;7.95;;;;;;;;;;5032985;28;20039;-62
2022/11/14 11:52:12;;;;;;;22.15;9.48;;;;;;;;;;5039219;28;20112;-62
2022/11/14 11:55:04;;;;;;;19.00;8.52;;;;;;;;;;5030994;28;20104;-62
2022/11/14 11:57:34;;;;;;;18.77;7.45;;;;;;;;;;5012097;28;20087;-62
2022/11/14 12:00:19;;;;;;;20.60;9.02;;;;;;;;;;5016537;28;20034;-62
2022/11/14 12:02:47;;;;;;;17.10;8.43;;;;;;;;;;5027751;28;20038;-63
2022/11/14 12:05:16;;;;;;;20.27;8.20;;;;;;;;;;5023184;28;20052;-62
2022/11/14 12:08:08;;;;;;;15.00;7.80;;;;;;;;;;5020683;28;20044;-62
2022/11/14 12:10:38;;;;;;;18.60;8.13;;;;;;;;;;5029245;28;20046;-62
2022/11/14 12:13:41;;;;;;;14.15;6.55;;;;;;;;;;5036527;28;20052;-62
2022/11/14 12:16:20;;;;;;;21.30;8.38;;;;;;;;;;5021394;28;20063;-62
2022/11/14 12:18:55;;;;;;;19.60;8.23;;;;;;;;;;5014525;28;20053;-62
2022/11/14 12:21:32;;;;;;;15.88;7.75;;;;;;;;;;5009266;28;20046;-62
2022/11/14 12:24:22;;;;;;;23.55;8.90;;;;;;;;;;5022706;28;20072;-62
2022/11/14 12:26:53;;;;;;;12.50;5.65;;;;;;;;;;5041296;28;20151;-62
2022/11/14 12:29:40;;;;;;;15.75;7.18;;;;;;;;;;5021844;28;20041;-62
2022/11/14 12:32:11;;;;;;;10.38;5.30;;;;;;;;;;5010084;28;20064;-63
2022/11/14 12:34:41;;;;;;;14.20;6.45;;;;;;;;;;5012751;28;20044;-61
2022/11/14 12:37:36;;;;;;;18.65;7.10;;;;;;;;;;5007926;28;20503;-62
2022/11/14 12:40:07;;;;;;;16.63;6.15;;;;;;;;;;5017211;28;20041;-63
2022/11/14 12:42:34;;;;;;;15.60;7.10;;;;;;;;;;5015435;28;20033;-62
2022/11/14 12:45:00;;;;;;;17.40;8.05;;;;;;;;;;5032518;28;20045;-62
2022/11/14 12:47:26;;;;;;;12.23;6.97;;;;;;;;;;5050279;28;20045;-62
2022/11/14 12:49:52;;;;;;;18.60;6.85;;;;;;;;;;5012501;28;20042;-62
2022/11/14 12:52:39;;;;;;;13.23;5.88;;;;;;;;;;5005547;28;20040;-62
2022/11/14 12:55:24;;;;;;;14.15;6.45;;;;;;;;;;5013016;28;20032;-62
2022/11/14 12:58:04;;;;;;;10.70;4.97;;;;;;;;;;5025417;28;20091;-61
2022/11/14 13:00:31;;;;;;;11.45;5.78;;;;;;;;;;5046457;28;20063;-62
2022/11/14 13:03:02;;;;;;;20.58;7.88;;;;;;;;;;5028081;28;20060;-63
2022/11/14 13:05:49;;;;;;;21.80;7.95;;;;;;;;;;5020081;28;20033;-62
2022/11/14 13:08:32;;;;;;;13.32;6.75;;;;;;;;;;5031649;28;20041;-62
2022/11/14 13:10:57;;;;;;;18.73;7.65;;;;;;;;;;5025823;28;20049;-62
2022/11/14 13:22:10;;;;;;;16.55;6.82;;;;;;;;;;5010936;28;20041;-62
2022/11/14 13:24:57;;;;;;;17.25;6.70;;;;;;;;;;5032409;28;20057;-62
2022/11/14 13:27:28;;;;;;;17.38;7.57;;;;;;;;;;5021711;28;20077;-62
2022/11/14 13:29:56;;;;;;;14.55;7.53;;;;;;;;;;5056581;28;20048;-62
2022/11/14 13:32:40;;;;;;;22.15;7.38;;;;;;;;;;5024362;28;20104;-61
2022/11/14 13:35:32;;;;;;;18.92;8.15;;;;;;;;;;5026342;28;20045;-62
2022/11/14 13:38:02;;;;;;;13.77;5.55;;;;;;;;;;5017235;28;20066;-61
2022/11/14 13:40:43;;;;;;;7.93;4.28;;;;;;;;;;5016401;28;20684;-61
2022/11/14 13:43:46;;;;;;;8.98;4.60;;;;;;;;;;5019922;28;20028;-62
2022/11/14 13:46:42;;;;;;;13.77;5.45;;;;;;;;;;5014117;28;20017;-62
2022/11/14 13:49:39;;;;;;;22.38;7.43;;;;;;;;;;5031759;28;20029;-62
2022/11/14 13:52:04;;;;;;;12.07;5.43;;;;;;;;;;5004895;28;20538;-61
2022/11/14 13:54:30;;;;;;;12.60;6.57;;;;;;;;;;5005695;28;20076;-62
2022/11/14 13:57:17;;;;;;;13.90;6.93;;;;;;;;;;5007222;28;20030;-61
2022/11/14 13:59:53;;;;;;;5.15;3.10;;;;;;;;;;4989355;28;20518;-62
2022/11/14 14:02:31;;;;;;;10.82;4.07;;;;;;;;;;5005847;28;20038;-62
2022/11/14 14:05:19;;;;;;;13.75;6.05;;;;;;;;;;5006469;28;20038;-62
2022/11/14 14:07:54;;;;;;;11.02;5.00;;;;;;;;;;5020992;28;20391;-61
2022/11/14 14:10:25;;;;;;;14.25;5.75;;;;;;;;;;5040945;28;20392;-61
2022/11/14 14:13:28;;;;;;;8.20;4.95;;;;;;;;;;5017364;28;20017;-61
2022/11/14 14:16:28;;;;;;;14.23;5.20;;;;;;;;;;5022240;28;20541;-61
2022/11/14 14:19:19;;;;;;;10.20;4.72;;;;;;;;;;5040021;28;20533;-61
2022/11/14 14:21:50;;;;;;;12.90;4.28;;;;;;;;;;5045103;28;20037;-61
2022/11/14 14:24:46;;;;;;;7.80;3.78;;;;;;;;;;5025080;28;20108;-61
2022/11/14 14:27:36;;;;;;;9.35;4.05;;;;;;;;;;5061976;28;20036;-61
2022/11/14 14:30:15;;;;;;;10.00;4.65;;;;;;;;;;5065706;28;20253;-61
2022/11/14 14:32:41;;;;;;;15.75;6.75;;;;;;;;;;5018932;28;20118;-61
2022/11/14 14:35:23;;;;;;;15.27;6.18;;;;;;;;;;5026092;28;20538;-61
2022/11/14 14:37:51;;;;;;;12.70;6.27;;;;;;;;;;5022452;28;20140;-61
2022/11/14 14:40:32;;;;;;;11.25;4.95;;;;;;;;;;5015750;28;20292;-62
2022/11/14 14:42:59;;;;;;;9.55;4.82;;;;;;;;;;5018515;28;20140;-62
2022/11/14 14:45:28;;;;;;;18.50;7.38;;;;;;;;;;5024313;28;20333;-61
2022/11/14 14:48:05;;;;;;;6.63;4.47;;;;;;;;;;5025991;28;20037;-62
2022/11/14 14:51:13;;;;;;;12.20;5.43;;;;;;;;;;5024489;28;20033;-61
2022/11/14 14:53:38;;;;;;;14.18;6.28;;;;;;;;;;5023146;28;20041;-61
2022/11/14 14:56:18;;;;;;;14.05;6.57;;;;;;;;;;5021428;28;20513;-62
2022/11/14 14:58:43;;;;;;;10.93;4.78;;;;;;;;;;5028640;28;20115;-62
2022/11/14 15:01:12;;;;;;;10.85;5.15;;;;;;;;;;5035325;28;20024;-62
2022/11/14 15:03:41;;;;;;;12.48;5.65;;;;;;;;;;5035116;28;20388;-61